createdAt,value
2018-03-30T00:01:36.488Z,68.50
2018-03-30T00:04:04.269Z,68.80
2018-03-30T00:06:32.310Z,67.60
2018-03-30T00:09:00.237Z,66.80
2018-03-30T00:11:48.387Z,67.60
2018-03-30T00:14:16.818Z,66.80
2018-03-30T00:16:59.517Z,67.40
2018-03-30T00:19:32.188Z,66.20
2018-03-30T00:22:01.801Z,67.00
2018-03-30T00:27:29.858Z,65.10
2018-03-30T00:29:58.511Z,66.10
2018-03-30T00:32:26.422Z,66.00
2018-03-30T00:34:55.032Z,67.10
2018-03-30T00:37:25.205Z,67.00
2018-03-30T00:39:58.869Z,65.80
2018-03-30T00:42:26.569Z,66.30
2018-03-30T00:47:59.864Z,66.70
2018-03-30T00:50:29.260Z,66.10
2018-03-30T00:52:57.694Z,65.80
2018-03-30T00:55:27.407Z,65.70
2018-03-30T00:58:02.588Z,65.10
2018-03-30T01:00:46.193Z,65.50
2018-03-30T01:03:23.514Z,64.10
2018-03-30T01:05:55.839Z,65.40
2018-03-30T01:13:32.590Z,65.40
2018-03-30T01:16:06.191Z,64.80
2018-03-30T01:18:34.785Z,65.40
2018-03-30T01:21:02.630Z,65.20
2018-03-30T01:23:37.791Z,65.20
2018-03-30T01:26:05.540Z,64.80
2018-03-30T01:28:45.391Z,65.30
2018-03-30T01:31:13.938Z,65.10
2018-03-30T01:36:39.229Z,64.80
2018-03-30T01:39:07.849Z,65.00
2018-03-30T01:41:35.811Z,66.20
2018-03-30T01:44:04.325Z,65.10
2018-03-30T01:46:33.639Z,66.00
2018-03-30T01:49:01.503Z,66.60
2018-03-30T01:51:30.028Z,65.20
2018-03-30T01:53:57.690Z,65.60
2018-03-30T01:56:25.592Z,65.30
2018-03-30T01:58:53.511Z,64.50
2018-03-30T02:01:21.906Z,66.10
2018-03-30T02:03:49.726Z,65.40
2018-03-30T02:06:20.326Z,66.50
2018-03-30T02:08:48.842Z,65.70
2018-03-30T02:11:18.139Z,65.90
2018-03-30T02:13:45.968Z,65.80
2018-03-30T02:16:18.958Z,66.00
2018-03-30T02:18:48.706Z,66.50
2018-03-30T02:21:16.336Z,65.60
2018-03-30T02:23:47.694Z,66.00
2018-03-30T02:26:18.263Z,66.10
2018-03-30T02:28:47.001Z,66.40
2018-03-30T02:31:15.455Z,66.90
2018-03-30T02:33:43.313Z,66.50
2018-03-30T02:36:11.135Z,65.90
2018-03-30T02:38:39.062Z,66.20
2018-03-30T02:41:10.840Z,64.80
2018-03-30T02:43:42.205Z,65.80
2018-03-30T02:46:10.959Z,65.80
2018-03-30T02:48:46.518Z,65.10
2018-03-30T02:51:26.236Z,64.70
2018-03-30T02:54:07.513Z,65.80
2018-03-30T02:56:35.383Z,65.30
2018-03-30T02:59:03.074Z,65.20
2018-03-30T03:01:30.926Z,65.30
2018-03-30T03:03:59.646Z,65.80
2018-03-30T03:06:28.290Z,64.50
2018-03-30T03:08:56.151Z,66.20
2018-03-30T03:11:24.120Z,65.60
2018-03-30T03:13:52.737Z,65.80
2018-03-30T03:16:20.618Z,64.60
2018-03-30T03:18:48.475Z,66.10
2018-03-30T03:21:17.043Z,65.70
2018-03-30T03:23:45.627Z,66.10
2018-03-30T03:26:13.478Z,65.70
2018-03-30T03:28:41.550Z,65.90
2018-03-30T03:31:09.465Z,65.70
2018-03-30T03:33:39.352Z,66.00
2018-03-30T03:36:07.540Z,66.00
2018-03-30T03:38:36.441Z,65.60
2018-03-30T03:41:04.193Z,66.70
2018-03-30T03:43:31.950Z,66.50
2018-03-30T03:45:59.791Z,65.50
2018-03-30T03:48:27.578Z,66.20
2018-03-30T03:50:55.761Z,66.10
2018-03-30T03:53:29.816Z,66.10
2018-03-30T03:55:57.516Z,65.80
2018-03-30T03:58:25.345Z,65.70
2018-03-30T04:00:53.545Z,65.00
2018-03-30T04:03:22.433Z,64.70
2018-03-30T04:05:51.166Z,65.90
2018-03-30T04:08:19.206Z,65.90
2018-03-30T04:10:47.860Z,65.70
2018-03-30T04:13:17.620Z,65.70
2018-03-30T04:15:47.431Z,66.20
2018-03-30T04:18:16.540Z,66.30
2018-03-30T04:20:45.339Z,66.30
2018-03-30T04:23:13.637Z,65.80
2018-03-30T04:25:41.544Z,66.00
2018-03-30T04:28:10.252Z,65.50
2018-03-30T04:30:38.109Z,66.20
2018-03-30T04:33:05.903Z,66.30
2018-03-30T04:35:33.816Z,65.40
2018-03-30T04:38:03.212Z,66.40
2018-03-30T04:40:36.022Z,66.70
2018-03-30T04:45:48.637Z,66.90
2018-03-30T04:48:21.277Z,66.00
2018-03-30T04:50:49.726Z,67.20
2018-03-30T04:53:17.826Z,66.80
2018-03-30T04:55:46.576Z,66.80
2018-03-30T04:58:14.491Z,67.00
2018-03-30T05:00:42.306Z,67.00
2018-03-30T05:03:10.502Z,66.60
2018-03-30T05:05:39.055Z,66.90
2018-03-30T05:08:07.749Z,66.80
2018-03-30T05:10:35.709Z,66.70
2018-03-30T05:13:05.628Z,66.50
2018-03-30T05:15:33.945Z,67.20
2018-03-30T05:18:02.323Z,67.10
2018-03-30T05:20:30.242Z,67.60
2018-03-30T05:22:58.121Z,67.00
2018-03-30T05:25:26.951Z,67.40
2018-03-30T05:27:54.956Z,67.10
2018-03-30T05:30:23.635Z,66.90
2018-03-30T05:32:52.349Z,66.30
2018-03-30T05:35:20.280Z,66.70
2018-03-30T05:37:48.693Z,67.50
2018-03-30T05:40:17.472Z,66.90
2018-03-30T05:42:46.274Z,67.30
2018-03-30T05:45:14.188Z,66.90
2018-03-30T05:47:55.581Z,67.00
2018-03-30T05:50:24.301Z,67.10
2018-03-30T05:52:55.661Z,67.40
2018-03-30T05:55:26.094Z,67.30
2018-03-30T05:57:54.638Z,66.20
2018-03-30T06:00:22.460Z,66.80
2018-03-30T06:02:50.849Z,67.10
2018-03-30T06:05:18.860Z,66.60
2018-03-30T06:07:46.793Z,66.90
2018-03-30T06:10:14.722Z,66.50
2018-03-30T06:12:54.562Z,65.70
2018-03-30T06:15:23.659Z,66.00
2018-03-30T06:17:52.270Z,65.00
2018-03-30T06:20:22.026Z,66.00
2018-03-30T06:22:51.980Z,65.90
2018-03-30T06:25:19.881Z,65.40
2018-03-30T06:27:47.690Z,65.60
2018-03-30T06:30:15.543Z,64.90
2018-03-30T06:32:43.196Z,65.70
2018-03-30T06:35:11.070Z,65.90
2018-03-30T06:37:39.080Z,65.30
2018-03-30T06:40:07.076Z,65.40
2018-03-30T06:42:34.947Z,65.70
2018-03-30T06:45:02.746Z,65.00
2018-03-30T06:47:30.714Z,65.50
2018-03-30T06:49:59.352Z,65.20
2018-03-30T06:52:27.613Z,64.80
2018-03-30T06:54:56.096Z,64.40
2018-03-30T06:57:24.026Z,65.40
2018-03-30T06:59:52.435Z,65.10
2018-03-30T07:02:21.216Z,64.60
2018-03-30T07:04:51.758Z,63.90
2018-03-30T07:07:20.337Z,64.70
2018-03-30T07:09:49.934Z,63.50
2018-03-30T07:12:18.616Z,63.50
2018-03-30T07:14:46.601Z,64.40
2018-03-30T07:17:16.086Z,64.40
2018-03-30T07:19:44.640Z,63.30
2018-03-30T07:22:12.650Z,62.50
2018-03-30T07:24:49.534Z,62.90
2018-03-30T07:29:53.310Z,61.10
2018-03-30T07:32:21.530Z,62.80
2018-03-30T07:35:02.784Z,61.50
2018-03-30T07:37:30.980Z,63.30
2018-03-30T07:40:00.263Z,61.60
2018-03-30T07:42:29.192Z,62.20
2018-03-30T07:44:57.136Z,62.90
2018-03-30T07:47:26.754Z,62.90
2018-03-30T07:49:54.858Z,62.60
2018-03-30T07:52:26.327Z,62.10
2018-03-30T07:54:55.158Z,62.40
2018-03-30T07:57:23.192Z,61.60
2018-03-30T08:02:30.983Z,60.70
2018-03-30T08:05:04.227Z,62.10
2018-03-30T08:07:34.656Z,60.90
2018-03-30T08:10:02.569Z,60.20
2018-03-30T08:12:31.515Z,60.90
2018-03-30T08:15:00.875Z,60.80
2018-03-30T08:17:31.194Z,60.30
2018-03-30T08:20:00.927Z,60.50
2018-03-30T08:22:28.911Z,60.40
2018-03-30T08:24:56.742Z,60.10
2018-03-30T08:27:25.968Z,60.30
2018-03-30T08:29:55.880Z,59.80
2018-03-30T08:32:23.785Z,60.60
2018-03-30T08:34:51.866Z,59.80
2018-03-30T08:37:21.494Z,59.50
2018-03-30T08:39:49.303Z,59.00
2018-03-30T08:42:21.410Z,58.10
2018-03-30T08:50:12.621Z,56.50
2018-03-30T08:52:41.371Z,57.00
2018-03-30T08:55:09.529Z,57.00
2018-03-30T08:57:37.955Z,56.30
2018-03-30T09:00:05.855Z,56.80
2018-03-30T09:02:38.452Z,57.20
2018-03-30T09:05:06.723Z,56.10
2018-03-30T09:07:35.486Z,54.80
2018-03-30T09:10:04.350Z,54.70
2018-03-30T09:12:33.338Z,53.70
2018-03-30T09:15:10.672Z,54.70
2018-03-30T09:17:38.809Z,52.90
2018-03-30T09:20:07.707Z,51.30
2018-03-30T09:22:40.002Z,51.20
2018-03-30T09:25:16.157Z,51.30
2018-03-30T09:27:46.644Z,49.00
2018-03-30T09:30:14.927Z,49.50
2018-03-30T09:32:43.944Z,49.50
2018-03-30T09:35:20.941Z,49.20
2018-03-30T09:37:51.302Z,49.30
2018-03-30T09:40:22.892Z,47.50
2018-03-30T09:42:51.374Z,46.90
2018-03-30T09:45:21.409Z,46.80
2018-03-30T09:47:52.691Z,46.70
2018-03-30T09:50:22.219Z,47.20
2018-03-30T09:52:50.291Z,45.60
2018-03-30T09:55:30.506Z,46.50
2018-03-30T09:57:58.650Z,45.10
2018-03-30T10:00:29.603Z,45.50
2018-03-30T10:03:04.175Z,46.10
2018-03-30T10:05:32.302Z,46.00
2018-03-30T10:08:00.192Z,43.20
2018-03-30T10:10:31.819Z,44.10
2018-03-30T10:12:59.681Z,46.60
2018-03-30T10:15:28.752Z,44.80
2018-03-30T10:17:57.486Z,44.20
2018-03-30T10:20:49.948Z,43.20
2018-03-30T10:23:18.952Z,42.00
2018-03-30T10:25:47.458Z,43.40
2018-03-30T10:28:16.275Z,42.40
2018-03-30T10:30:44.152Z,42.30
2018-03-30T10:33:12.190Z,43.20
2018-03-30T10:35:40.154Z,44.10
2018-03-30T10:38:11.260Z,41.80
2018-03-30T10:40:39.891Z,38.70
2018-03-30T10:43:07.864Z,40.10
2018-03-30T10:45:37.595Z,37.70
2018-03-30T10:48:09.190Z,38.40
2018-03-30T10:50:39.702Z,39.30
2018-03-30T10:53:08.497Z,37.50
2018-03-30T10:55:37.528Z,37.50
2018-03-30T10:58:08.194Z,35.00
2018-03-30T11:20:45.427Z,34.50
2018-03-30T11:23:15.668Z,34.30
2018-03-30T11:25:46.162Z,38.60
2018-03-30T11:28:17.399Z,36.50
2018-03-30T11:30:50.642Z,35.70
2018-03-30T11:33:20.031Z,34.50
2018-03-30T11:35:48.972Z,35.50
2018-03-30T11:38:17.004Z,36.60
2018-03-30T11:40:45.042Z,34.80
2018-03-30T11:43:15.111Z,37.70
2018-03-30T11:45:50.093Z,38.50
2018-03-30T11:48:18.240Z,38.60
2018-03-30T11:50:47.190Z,37.70
2018-03-30T11:53:16.819Z,37.30
2018-03-30T11:55:45.836Z,38.20
2018-03-30T11:58:13.691Z,38.20
2018-03-30T12:00:41.428Z,39.20
2018-03-30T12:03:09.363Z,39.20
2018-03-30T12:05:37.798Z,39.50
2018-03-30T12:08:05.811Z,40.10
2018-03-30T12:10:35.031Z,39.10
2018-03-30T12:13:10.789Z,39.10
2018-03-30T12:15:38.921Z,40.40
2018-03-30T12:18:07.364Z,41.20
2018-03-30T12:20:35.673Z,41.30
2018-03-30T12:23:05.622Z,41.00
2018-03-30T12:25:34.007Z,40.80
2018-03-30T12:28:02.322Z,41.20
2018-03-30T12:30:30.579Z,43.30
2018-03-30T12:32:58.514Z,42.00
2018-03-30T12:35:27.982Z,43.10
2018-03-30T12:37:56.912Z,42.00
2018-03-30T12:40:25.869Z,38.40
2018-03-30T12:42:58.529Z,40.10
2018-03-30T12:45:31.011Z,41.00
2018-03-30T12:48:02.904Z,40.60
2018-03-30T12:50:33.629Z,42.00
2018-03-30T12:53:02.602Z,41.60
2018-03-30T12:55:33.732Z,40.90
2018-03-30T12:58:04.708Z,42.60
2018-03-30T13:00:32.934Z,42.30
2018-03-30T13:03:00.894Z,42.00
2018-03-30T13:05:31.072Z,42.60
2018-03-30T13:08:01.249Z,42.60
2018-03-30T13:10:32.488Z,40.30
2018-03-30T13:13:02.359Z,41.10
2018-03-30T13:15:30.847Z,39.90
2018-03-30T13:17:59.726Z,42.30
2018-03-30T13:20:36.500Z,41.20
2018-03-30T13:23:04.849Z,42.70
2018-03-30T13:25:33.794Z,41.60
2018-03-30T13:31:05.328Z,41.80
2018-03-30T13:33:34.623Z,43.20
2018-03-30T13:36:13.883Z,42.70
2018-03-30T13:38:42.516Z,41.90
2018-03-30T13:41:10.505Z,43.00
2018-03-30T13:43:39.277Z,41.90
2018-03-30T13:46:10.428Z,42.10
2018-03-30T13:48:39.472Z,41.70
2018-03-30T13:51:09.387Z,41.80
2018-03-30T13:53:46.069Z,41.80
2018-03-30T13:56:38.465Z,41.20
2018-03-30T14:00:12.148Z,41.70
2018-03-30T14:03:11.713Z,39.10
2018-03-30T14:05:42.337Z,40.20
2018-03-30T14:08:30.257Z,39.70
2018-03-30T14:11:02.096Z,38.90
2018-03-30T14:14:51.835Z,39.20
2018-03-30T14:17:31.184Z,39.70
2018-03-30T14:20:06.067Z,39.00
2018-03-30T14:22:53.918Z,39.40
2018-03-30T14:25:28.969Z,41.40
2018-03-30T14:31:20.718Z,39.20
2018-03-30T14:33:49.461Z,39.80
2018-03-30T14:36:23.484Z,40.40
2018-03-30T14:42:38.600Z,40.10
2018-03-30T14:45:13.629Z,40.40
2018-03-30T14:47:43.972Z,41.80
2018-03-30T14:50:20.645Z,42.40
2018-03-30T14:52:56.063Z,40.60
2018-03-30T14:55:25.670Z,40.60
2018-03-30T14:58:23.270Z,41.90
2018-03-30T15:01:05.240Z,39.40
2018-03-30T15:03:36.013Z,41.30
2018-03-30T15:09:31.324Z,40.10
2018-03-30T15:12:30.164Z,41.10
2018-03-30T15:15:11.935Z,41.00
2018-03-30T15:17:44.556Z,39.70
2018-03-30T15:20:14.486Z,41.10
2018-03-30T15:22:55.837Z,41.30
2018-03-30T15:25:24.858Z,41.20
2018-03-30T15:27:58.482Z,41.30
2018-03-30T15:30:38.518Z,40.40
2018-03-30T15:33:10.508Z,42.50
2018-03-30T15:35:43.091Z,43.40
2018-03-30T15:38:11.173Z,42.20
2018-03-30T15:40:40.408Z,43.80
2018-03-30T15:43:13.988Z,43.00
2018-03-30T15:45:51.917Z,44.70
2018-03-30T15:48:19.763Z,43.30
2018-03-30T15:50:47.841Z,44.00
2018-03-30T15:53:18.535Z,43.60
2018-03-30T15:55:46.660Z,42.20
2018-03-30T15:58:20.507Z,43.30
2018-03-30T16:00:51.556Z,42.80
2018-03-30T16:03:19.518Z,42.80
2018-03-30T16:05:47.881Z,43.20
2018-03-30T16:08:16.004Z,43.50
2018-03-30T16:10:45.014Z,43.80
2018-03-30T16:13:13.096Z,43.80
2018-03-30T16:15:41.323Z,43.70
2018-03-30T16:18:12.594Z,43.60
2018-03-30T16:20:40.473Z,44.20
2018-03-30T16:23:10.773Z,44.90
2018-03-30T16:25:38.151Z,46.00
2018-03-30T16:28:18.555Z,45.80
2018-03-30T16:30:49.269Z,45.10
2018-03-30T16:33:16.706Z,45.20
2018-03-30T16:35:48.684Z,45.60
2018-03-30T16:38:18.201Z,46.30
2018-03-30T16:40:49.734Z,46.80
2018-03-30T16:43:20.524Z,46.80
2018-03-30T16:45:48.000Z,47.10
2018-03-30T16:48:24.376Z,47.60
2018-03-30T16:55:53.693Z,47.30
2018-03-30T16:58:22.747Z,49.30
2018-03-30T17:00:50.012Z,48.70
2018-03-30T17:03:17.727Z,49.40
2018-03-30T17:05:46.799Z,49.90
2018-03-30T17:08:16.319Z,50.50
2018-03-30T17:10:45.388Z,50.80
2018-03-30T17:13:14.494Z,50.80
2018-03-30T17:15:41.971Z,52.70
2018-03-30T17:18:10.316Z,52.70
2018-03-30T17:20:37.534Z,54.20
2018-03-30T17:23:07.553Z,55.00
2018-03-30T17:25:37.564Z,55.00
2018-03-30T17:28:12.004Z,55.60
2018-03-30T17:30:40.416Z,55.50
2018-03-30T17:33:08.326Z,55.80
2018-03-30T17:35:38.108Z,56.40
2018-03-30T17:38:05.631Z,56.20
2018-03-30T17:40:35.632Z,57.40
2018-03-30T17:43:07.567Z,58.40
2018-03-30T17:45:48.858Z,60.00
2018-03-30T17:48:18.517Z,62.00
2018-03-30T17:50:47.267Z,63.60
2018-03-30T17:53:24.673Z,64.20
2018-03-30T17:55:58.283Z,65.60
2018-03-30T17:58:26.736Z,65.30
2018-03-30T18:00:57.164Z,65.40
2018-03-30T18:33:34.509Z,64.70
2018-03-30T18:36:17.496Z,65.80
2018-03-30T18:38:51.545Z,66.20
2018-03-30T18:44:03.801Z,66.00
2018-03-30T18:46:32.746Z,65.90
2018-03-30T18:58:51.538Z,65.90
2018-03-30T19:04:28.958Z,67.30
2018-03-30T19:07:25.979Z,67.10
2018-03-30T19:30:03.722Z,70.80
2018-03-30T19:32:30.954Z,74.20
2018-03-30T19:35:02.450Z,75.20
2018-03-30T19:40:06.680Z,78.00
2018-03-30T19:42:38.110Z,78.50
2018-03-30T19:47:41.580Z,79.50
2018-03-30T19:53:02.972Z,80.40
2018-03-30T19:55:30.222Z,80.30
2018-03-30T19:57:58.541Z,81.10
2018-03-30T20:00:27.727Z,81.50
2018-03-30T20:02:55.011Z,82.10
2018-03-30T20:05:23.107Z,82.10
2018-03-30T20:07:54.197Z,81.70
2018-03-30T20:10:22.430Z,81.70
2018-03-30T20:12:49.739Z,81.60
2018-03-30T20:15:20.901Z,81.40
2018-03-30T20:17:48.093Z,81.40
2018-03-30T20:20:16.110Z,81.30
2018-03-30T20:22:45.074Z,82.00
2018-03-30T20:25:16.452Z,81.90
2018-03-30T20:27:44.158Z,82.40
2018-03-30T20:30:12.216Z,82.50
2018-03-30T20:32:39.513Z,82.70
2018-03-30T20:35:06.854Z,82.50
2018-03-30T20:37:34.213Z,82.70
2018-03-30T20:40:03.051Z,82.30
2018-03-30T20:42:31.800Z,82.50
2018-03-30T20:45:01.033Z,82.50
2018-03-30T20:47:30.320Z,82.60
2018-03-30T20:50:10.057Z,82.80
2018-03-30T20:52:38.061Z,82.60
2018-03-30T20:55:29.385Z,82.50
2018-03-30T21:00:40.269Z,82.50
2018-03-30T21:03:11.124Z,82.20
2018-03-30T21:05:38.490Z,81.90
2018-03-30T21:08:06.782Z,82.30
2018-03-30T21:10:38.692Z,82.10
2018-03-30T21:13:06.073Z,82.10
2018-03-30T21:15:34.018Z,81.90
2018-03-30T21:18:01.631Z,81.10
2018-03-30T21:20:35.021Z,78.60
2018-03-30T21:23:03.390Z,78.60
2018-03-30T21:25:33.964Z,78.70
2018-03-30T21:28:03.311Z,79.00
2018-03-30T21:30:30.645Z,78.50
2018-03-30T21:32:57.873Z,79.20
2018-03-30T21:35:26.518Z,78.90
2018-03-30T21:37:54.970Z,78.80
2018-03-30T21:40:22.582Z,78.80
2018-03-30T21:42:50.740Z,79.20
2018-03-30T21:45:19.082Z,79.10
2018-03-30T21:47:46.596Z,78.80
2018-03-30T21:50:17.529Z,78.70
2018-03-30T21:52:45.842Z,78.00
2018-03-30T21:55:15.480Z,78.00
2018-03-30T21:57:43.169Z,77.90
2018-03-30T22:06:08.250Z,78.70
2018-03-30T22:08:35.605Z,78.90
2018-03-30T22:11:04.863Z,79.20
2018-03-30T22:13:34.483Z,79.20
2018-03-30T22:16:10.927Z,79.10
2018-03-30T22:18:38.442Z,79.30
2018-03-30T22:21:09.451Z,79.50
2018-03-30T22:23:38.019Z,79.80
2018-03-30T22:26:12.564Z,80.10
2018-03-30T22:28:40.608Z,80.30
2018-03-30T22:31:08.415Z,80.70
2018-03-30T22:33:35.648Z,80.70
2018-03-30T22:36:04.682Z,80.80
2018-03-30T22:38:34.055Z,81.50
2018-03-30T22:41:25.084Z,81.50
2018-03-30T22:44:15.405Z,81.90
2018-03-30T22:46:47.407Z,82.00
2018-03-30T22:49:21.903Z,82.20
2018-03-30T22:51:51.724Z,82.30
2018-03-30T22:54:18.941Z,82.40
2018-03-30T22:56:50.303Z,82.50
2018-03-30T22:59:17.894Z,82.50
2018-03-30T23:01:45.358Z,82.60
2018-03-30T23:04:18.638Z,82.40
2018-03-30T23:06:48.314Z,82.70
2018-03-30T23:09:27.492Z,82.90
2018-03-30T23:11:57.732Z,82.90
2018-03-30T23:14:33.746Z,82.90
2018-03-30T23:17:05.664Z,82.90
2018-03-30T23:19:37.660Z,82.80
2018-03-30T23:22:06.157Z,83.00
2018-03-30T23:27:39.373Z,82.80
2018-03-30T23:32:46.872Z,82.80
2018-03-30T23:38:13.620Z,82.60
2018-03-30T23:40:44.645Z,82.50
2018-03-30T23:43:12.049Z,82.40
2018-03-30T23:45:39.430Z,83.10
2018-03-30T23:48:06.632Z,83.20
2018-03-30T23:50:34.424Z,83.40
2018-03-30T23:53:02.540Z,83.50
2018-03-30T23:55:33.317Z,83.40
2018-03-30T23:58:01.556Z,83.00
